Time;durP1;ratioP1;P1;durP2;ratioP2;P2;SDS_P1;SDS_P2;PMS_P1;PMS_P2;Temp;Humidity;BMP_temperature;BMP_pressure;BME280_temperature;BME280_humidity;BME280_pressure;Samples;Min_cycle;Max_cycle;Signal;HPM_P1;HPM_P2
2024/04/12 00:00:58;;;;;;;17.88;11.20;;;;;;;;;;5450052;26;19995;-74
2024/04/12 00:03:26;;;;;;;15.88;10.50;;;;;;;;;;5407068;26;20758;-73
2024/04/12 00:05:54;;;;;;;16.20;11.38;;;;;;;;;;5453332;26;20760;-74
2024/04/12 00:08:22;;;;;;;16.00;11.43;;;;;;;;;;5451053;26;20003;-73
2024/04/12 00:10:48;;;;;;;18.80;11.93;;;;;;;;;;5442417;26;20010;-75
2024/04/12 00:13:16;;;;;;;15.35;10.98;;;;;;;;;;5453295;26;20007;-75
2024/04/12 00:15:42;;;;;;;14.38;10.80;;;;;;;;;;5461654;26;20010;-74
2024/04/12 00:18:11;;;;;;;16.40;10.98;;;;;;;;;;5420228;26;20010;-74
2024/04/12 00:20:37;;;;;;;15.23;11.23;;;;;;;;;;5447356;26;20061;-74
2024/04/12 00:23:06;;;;;;;15.75;11.18;;;;;;;;;;5449893;26;20010;-74
2024/04/12 00:25:33;;;;;;;18.08;12.98;;;;;;;;;;5457349;26;21512;-73
2024/04/12 00:28:01;;;;;;;18.67;11.93;;;;;;;;;;5460802;26;20002;-75
2024/04/12 00:30:41;;;;;;;14.93;11.20;;;;;;;;;;5455447;26;19998;-74
2024/04/12 00:33:11;;;;;;;17.75;12.07;;;;;;;;;;5425225;26;20232;-75
2024/04/12 00:35:39;;;;;;;16.80;11.93;;;;;;;;;;5437503;26;19998;-74
2024/04/12 00:38:09;;;;;;;20.60;13.38;;;;;;;;;;5457966;26;20075;-74
2024/04/12 00:40:41;;;;;;;22.10;13.73;;;;;;;;;;5434931;26;19998;-73
2024/04/12 00:43:14;;;;;;;17.83;12.32;;;;;;;;;;5467197;26;20003;-74
2024/04/12 00:45:51;;;;;;;17.20;13.52;;;;;;;;;;5421991;26;19994;-75
2024/04/12 00:48:21;;;;;;;18.65;14.98;;;;;;;;;;5462339;26;19998;-74
2024/04/12 00:50:50;;;;;;;20.65;14.10;;;;;;;;;;5444491;26;20018;-74
2024/04/12 00:53:28;;;;;;;16.90;13.10;;;;;;;;;;5453890;26;19999;-73
2024/04/12 00:56:03;;;;;;;18.95;12.80;;;;;;;;;;5446283;26;20050;-72
2024/04/12 00:58:32;;;;;;;16.73;12.95;;;;;;;;;;5458884;26;20003;-74
2024/04/12 01:01:10;;;;;;;21.17;14.88;;;;;;;;;;5465252;26;20002;-74
2024/04/12 01:03:45;;;;;;;17.77;13.52;;;;;;;;;;5423767;26;20002;-73
2024/04/12 01:06:16;;;;;;;22.70;15.45;;;;;;;;;;5470170;26;19998;-74
2024/04/12 01:08:46;;;;;;;22.80;15.13;;;;;;;;;;5442165;26;20013;-73
2024/04/12 01:11:13;;;;;;;20.90;15.05;;;;;;;;;;5452254;26;20544;-73
2024/04/12 01:13:40;;;;;;;20.35;13.85;;;;;;;;;;5472245;26;20005;-73
2024/04/12 01:16:07;;;;;;;21.40;13.32;;;;;;;;;;5450927;26;20003;-73
2024/04/12 01:18:34;;;;;;;20.10;14.45;;;;;;;;;;5465392;26;20838;-74
2024/04/12 01:21:10;;;;;;;21.37;14.73;;;;;;;;;;5442577;26;20059;-74
2024/04/12 01:23:42;;;;;;;18.35;13.65;;;;;;;;;;5452852;26;20079;-74
2024/04/12 01:26:09;;;;;;;23.67;14.70;;;;;;;;;;5453661;26;20003;-75
2024/04/12 01:28:36;;;;;;;19.15;14.52;;;;;;;;;;5424308;26;20017;-74
2024/04/12 01:31:03;;;;;;;20.15;15.48;;;;;;;;;;5446406;26;19998;-74
2024/04/12 01:33:31;;;;;;;22.67;16.45;;;;;;;;;;5463579;26;20562;-73
2024/04/12 01:36:05;;;;;;;22.90;16.95;;;;;;;;;;5437922;26;19999;-73
2024/04/12 01:38:36;;;;;;;24.27;17.05;;;;;;;;;;5460953;26;19999;-73
2024/04/12 01:41:05;;;;;;;24.90;18.20;;;;;;;;;;5454879;26;19999;-73
2024/04/12 01:43:36;;;;;;;23.40;16.25;;;;;;;;;;5438481;26;20014;-73
2024/04/12 01:46:04;;;;;;;21.10;16.27;;;;;;;;;;5424325;26;20793;-73
2024/04/12 01:48:34;;;;;;;21.80;16.55;;;;;;;;;;5421349;26;20057;-73
2024/04/12 01:51:04;;;;;;;22.95;16.80;;;;;;;;;;5411611;26;20025;-72
2024/04/12 01:53:38;;;;;;;22.83;17.35;;;;;;;;;;5465813;26;20062;-72
2024/04/12 01:56:09;;;;;;;29.05;20.35;;;;;;;;;;5451921;26;20529;-73
2024/04/12 01:58:39;;;;;;;24.70;19.08;;;;;;;;;;5444994;26;20003;-73
2024/04/12 02:01:11;;;;;;;23.13;15.95;;;;;;;;;;5454727;26;19994;-72
2024/04/12 02:03:40;;;;;;;23.05;16.38;;;;;;;;;;5444421;26;20342;-73
2024/04/12 02:06:06;;;;;;;22.02;16.15;;;;;;;;;;5445267;26;20014;-71
2024/04/12 02:08:35;;;;;;;24.02;16.13;;;;;;;;;;5445208;26;20009;-72
2024/04/12 02:11:05;;;;;;;23.77;16.92;;;;;;;;;;5416871;26;20100;-73
2024/04/12 02:13:36;;;;;;;25.00;17.08;;;;;;;;;;5404579;26;20326;-72
2024/04/12 02:16:05;;;;;;;22.85;16.55;;;;;;;;;;5473704;26;20002;-72
2024/04/12 02:18:34;;;;;;;23.25;17.15;;;;;;;;;;5468342;26;20013;-73
2024/04/12 02:21:05;;;;;;;22.35;16.02;;;;;;;;;;5457994;26;20011;-73
2024/04/12 02:23:35;;;;;;;20.52;14.07;;;;;;;;;;5463267;26;20006;-72
2024/04/12 02:26:04;;;;;;;19.98;14.45;;;;;;;;;;5402057;26;20006;-73
2024/04/12 02:28:36;;;;;;;19.35;13.40;;;;;;;;;;5461808;26;20082;-73
2024/04/12 02:31:08;;;;;;;18.75;14.10;;;;;;;;;;5444112;26;19995;-72
2024/04/12 02:33:35;;;;;;;16.27;12.38;;;;;;;;;;5443067;26;20565;-72
2024/04/12 02:36:03;;;;;;;14.77;12.07;;;;;;;;;;5471317;26;20027;-73
2024/04/12 02:38:31;;;;;;;18.55;13.75;;;;;;;;;;5414065;26;20043;-72
2024/04/12 02:40:58;;;;;;;17.60;14.27;;;;;;;;;;5434417;26;20003;-73
2024/04/12 02:43:24;;;;;;;17.88;13.55;;;;;;;;;;5405809;26;20002;-72
2024/04/12 02:45:52;;;;;;;21.58;14.07;;;;;;;;;;5443292;26;20361;-73
2024/04/12 02:48:21;;;;;;;19.75;15.15;;;;;;;;;;5441546;26;20466;-73
2024/04/12 02:50:53;;;;;;;19.50;13.70;;;;;;;;;;5458409;26;20071;-73
2024/04/12 02:53:21;;;;;;;19.55;14.10;;;;;;;;;;5464878;26;20047;-71
2024/04/12 02:56:17;;;;;;;19.77;14.52;;;;;;;;;;5417077;26;20047;-73
2024/04/12 02:58:45;;;;;;;19.52;13.93;;;;;;;;;;5428440;26;20002;-73
2024/04/12 03:01:16;;;;;;;19.63;13.93;;;;;;;;;;5447073;26;20043;-73
2024/04/12 03:03:46;;;;;;;17.70;13.48;;;;;;;;;;5461664;26;20079;-73
2024/04/12 03:06:16;;;;;;;18.98;14.18;;;;;;;;;;5457619;26;20002;-72
2024/04/12 03:08:47;;;;;;;19.55;13.75;;;;;;;;;;5398148;26;19999;-72
2024/04/12 03:11:21;;;;;;;18.27;13.25;;;;;;;;;;5442673;26;20312;-74
2024/04/12 03:13:52;;;;;;;22.77;13.90;;;;;;;;;;5416921;26;19999;-73
2024/04/12 03:16:19;;;;;;;18.55;14.20;;;;;;;;;;5461585;26;20006;-73
2024/04/12 03:18:48;;;;;;;18.20;13.95;;;;;;;;;;5444198;26;20017;-73
2024/04/12 03:21:20;;;;;;;16.50;13.15;;;;;;;;;;5443874;26;20003;-72
2024/04/12 03:23:48;;;;;;;18.45;12.93;;;;;;;;;;5438602;26;20890;-72
2024/04/12 03:26:15;;;;;;;17.67;13.65;;;;;;;;;;5468501;26;20006;-73
2024/04/12 03:28:45;;;;;;;17.77;13.85;;;;;;;;;;5476732;26;20066;-73
2024/04/12 03:31:12;;;;;;;20.13;13.13;;;;;;;;;;5452708;26;20030;-72
2024/04/12 03:33:48;;;;;;;17.90;13.43;;;;;;;;;;5442312;26;20474;-73
2024/04/12 03:36:53;;;;;;;15.52;11.77;;;;;;;;;;5430747;26;20010;-72
2024/04/12 03:41:56;;;;;;;16.23;12.35;;;;;;;;;;5452705;26;20019;-73
2024/04/12 03:44:30;;;;;;;14.13;11.02;;;;;;;;;;5430589;26;20048;-72
2024/04/12 03:47:00;;;;;;;15.40;12.23;;;;;;;;;;5437921;26;19998;-73
2024/04/12 03:49:31;;;;;;;15.00;11.02;;;;;;;;;;5431909;26;20018;-72
2024/04/12 03:51:58;;;;;;;12.95;10.25;;;;;;;;;;5451287;26;20006;-73
2024/04/12 03:54:25;;;;;;;14.50;11.38;;;;;;;;;;5442502;26;20079;-72
2024/04/12 03:56:52;;;;;;;16.07;11.07;;;;;;;;;;5448024;26;20185;-73
2024/04/12 03:59:20;;;;;;;13.43;10.70;;;;;;;;;;5440571;26;20011;-73
2024/04/12 04:01:47;;;;;;;13.52;10.52;;;;;;;;;;5468034;26;20078;-73
2024/04/12 04:04:17;;;;;;;14.45;10.57;;;;;;;;;;5425499;26;20003;-73
2024/04/12 04:06:45;;;;;;;17.60;12.13;;;;;;;;;;5444305;26;20009;-73
2024/04/12 04:09:13;;;;;;;14.35;11.02;;;;;;;;;;5447315;26;20080;-73
2024/04/12 04:11:42;;;;;;;14.10;10.65;;;;;;;;;;5445585;26;19998;-73
2024/04/12 04:14:09;;;;;;;17.17;11.20;;;;;;;;;;5446087;26;20018;-73
2024/04/12 04:16:36;;;;;;;14.85;10.75;;;;;;;;;;5458538;26;20013;-73
2024/04/12 04:19:03;;;;;;;16.52;11.63;;;;;;;;;;5402432;26;20588;-72
2024/04/12 04:21:33;;;;;;;14.65;11.15;;;;;;;;;;5434190;26;20072;-73
2024/04/12 04:24:08;;;;;;;16.38;11.10;;;;;;;;;;5443081;26;20005;-73
2024/04/12 04:26:36;;;;;;;17.88;12.02;;;;;;;;;;5473456;26;20013;-73
2024/04/12 04:29:09;;;;;;;16.98;11.93;;;;;;;;;;5467666;26;20006;-73
2024/04/12 04:31:46;;;;;;;16.05;11.80;;;;;;;;;;5445662;26;19999;-73
2024/04/12 04:34:13;;;;;;;17.05;12.15;;;;;;;;;;5453055;26;20003;-73
2024/04/12 04:36:40;;;;;;;15.13;11.65;;;;;;;;;;5410720;26;19998;-73
2024/04/12 04:39:07;;;;;;;16.88;11.50;;;;;;;;;;5418298;26;19999;-73
2024/04/12 04:41:33;;;;;;;14.43;10.93;;;;;;;;;;5449801;26;20071;-73
2024/04/12 04:44:00;;;;;;;14.93;11.38;;;;;;;;;;5459978;26;19998;-72
2024/04/12 04:46:29;;;;;;;14.88;10.25;;;;;;;;;;5460894;26;20010;-73
2024/04/12 04:48:56;;;;;;;15.52;11.60;;;;;;;;;;5439323;26;20005;-73
2024/04/12 04:51:23;;;;;;;15.02;10.65;;;;;;;;;;5458239;26;20810;-72
2024/04/12 04:53:53;;;;;;;13.57;9.88;;;;;;;;;;5434829;26;19999;-73
2024/04/12 04:56:30;;;;;;;14.80;9.90;;;;;;;;;;5430613;26;20082;-73
2024/04/12 04:58:57;;;;;;;14.73;10.60;;;;;;;;;;5465410;26;20061;-74
2024/04/12 05:01:26;;;;;;;14.20;10.05;;;;;;;;;;5448309;26;20003;-73
2024/04/12 05:03:53;;;;;;;13.30;10.60;;;;;;;;;;5441735;26;20006;-72
2024/04/12 05:06:24;;;;;;;14.80;10.02;;;;;;;;;;5441855;26;20334;-73
2024/04/12 05:08:52;;;;;;;13.50;10.27;;;;;;;;;;5431112;26;20052;-73
2024/04/12 05:11:19;;;;;;;14.45;10.27;;;;;;;;;;5436664;26;20058;-73
2024/04/12 05:13:49;;;;;;;12.65;10.13;;;;;;;;;;5435361;26;19995;-73
2024/04/12 05:16:19;;;;;;;14.00;10.23;;;;;;;;;;5448498;26;20017;-73
2024/04/12 05:18:48;;;;;;;15.30;10.23;;;;;;;;;;5457178;26;19998;-73
2024/04/12 05:21:15;;;;;;;16.23;11.23;;;;;;;;;;5442016;26;20007;-73
2024/04/12 05:23:41;;;;;;;14.38;10.13;;;;;;;;;;5455549;26;20881;-73
2024/04/12 05:26:09;;;;;;;14.25;10.30;;;;;;;;;;5423495;26;20428;-73
2024/04/12 05:28:36;;;;;;;13.95;9.65;;;;;;;;;;5465015;26;20725;-74
2024/04/12 05:31:02;;;;;;;16.00;9.77;;;;;;;;;;5451382;26;19999;-73
2024/04/12 05:33:33;;;;;;;14.43;10.60;;;;;;;;;;5433109;26;19998;-73
2024/04/12 05:36:01;;;;;;;14.70;9.98;;;;;;;;;;5438086;26;20648;-72
2024/04/12 05:38:28;;;;;;;15.00;9.65;;;;;;;;;;5456002;26;20047;-73
2024/04/12 05:40:56;;;;;;;17.67;10.48;;;;;;;;;;5457140;26;20021;-72
2024/04/12 05:43:23;;;;;;;15.90;10.25;;;;;;;;;;5462421;26;20151;-73
2024/04/12 05:45:50;;;;;;;17.50;9.73;;;;;;;;;;5454712;26;20002;-73
2024/04/12 05:48:17;;;;;;;14.40;9.57;;;;;;;;;;5468785;26;20014;-73
2024/04/12 05:50:48;;;;;;;14.77;9.30;;;;;;;;;;5442204;26;20045;-72
2024/04/12 05:53:16;;;;;;;13.23;9.32;;;;;;;;;;5454418;26;20825;-73
2024/04/12 05:55:45;;;;;;;12.93;8.93;;;;;;;;;;5444043;26;20735;-73
2024/04/12 05:58:12;;;;;;;12.88;9.18;;;;;;;;;;5446889;26;19995;-73
2024/04/12 06:00:41;;;;;;;14.43;10.05;;;;;;;;;;5455051;26;20003;-73
2024/04/12 06:03:13;;;;;;;15.02;9.27;;;;;;;;;;5443256;26;20011;-73
2024/04/12 06:05:41;;;;;;;13.48;9.20;;;;;;;;;;5450864;26;20733;-73
2024/04/12 06:08:07;;;;;;;14.40;9.05;;;;;;;;;;5433685;26;20952;-75
2024/04/12 06:10:34;;;;;;;14.82;9.23;;;;;;;;;;5451751;26;19998;-74
2024/04/12 06:13:06;;;;;;;14.93;8.50;;;;;;;;;;5428272;26;20002;-74
2024/04/12 06:15:36;;;;;;;12.00;8.50;;;;;;;;;;5475766;26;20591;-74
2024/04/12 06:18:05;;;;;;;16.35;9.90;;;;;;;;;;5435575;26;20010;-73
2024/04/12 06:20:32;;;;;;;15.38;9.38;;;;;;;;;;5428230;26;20021;-74
2024/04/12 06:22:59;;;;;;;15.32;10.35;;;;;;;;;;5454908;26;20014;-74
2024/04/12 06:25:25;;;;;;;16.80;10.65;;;;;;;;;;5467710;26;20760;-73
2024/04/12 06:27:54;;;;;;;18.25;10.98;;;;;;;;;;5469686;26;20001;-73
2024/04/12 06:30:24;;;;;;;17.00;10.93;;;;;;;;;;5464939;26;20746;-73
2024/04/12 06:32:53;;;;;;;15.27;9.38;;;;;;;;;;5467035;26;20007;-74
2024/04/12 06:35:28;;;;;;;16.77;10.02;;;;;;;;;;5419064;26;20017;-73
2024/04/12 06:37:57;;;;;;;18.55;10.40;;;;;;;;;;5452893;26;20026;-73
2024/04/12 06:40:28;;;;;;;18.50;10.68;;;;;;;;;;5449827;26;20003;-73
2024/04/12 06:42:55;;;;;;;16.80;10.65;;;;;;;;;;5404285;26;20013;-73
2024/04/12 06:45:26;;;;;;;17.77;10.90;;;;;;;;;;5453383;26;20003;-73
2024/04/12 06:47:56;;;;;;;19.85;11.60;;;;;;;;;;5467701;26;20013;-74
2024/04/12 06:50:24;;;;;;;21.17;12.45;;;;;;;;;;5451856;26;20010;-72
2024/04/12 06:52:54;;;;;;;19.48;12.07;;;;;;;;;;5429993;26;20013;-73
2024/04/12 06:55:22;;;;;;;21.15;12.40;;;;;;;;;;5444239;26;19999;-73
2024/04/12 06:57:52;;;;;;;20.70;11.68;;;;;;;;;;5442014;26;20474;-73
2024/04/12 07:00:20;;;;;;;18.98;11.98;;;;;;;;;;5430287;26;20010;-73
2024/04/12 07:02:49;;;;;;;20.80;11.95;;;;;;;;;;5457492;26;20079;-74
2024/04/12 07:05:15;;;;;;;20.50;12.63;;;;;;;;;;5430571;26;20002;-73
2024/04/12 07:07:42;;;;;;;19.65;11.88;;;;;;;;;;5458029;26;20003;-73
2024/04/12 07:10:09;;;;;;;20.42;11.73;;;;;;;;;;5446339;26;20067;-74
2024/04/12 07:12:38;;;;;;;17.55;11.85;;;;;;;;;;5466367;26;20042;-73
2024/04/12 07:15:09;;;;;;;23.65;12.80;;;;;;;;;;5413312;26;20003;-74
2024/04/12 07:17:39;;;;;;;16.63;11.52;;;;;;;;;;5437557;26;20018;-74
2024/04/12 07:20:13;;;;;;;;;;;;;;;;;;5439250;26;20813;-73
2024/04/12 07:22:39;;;;;;;17.67;12.30;;;;;;;;;;5429650;26;19974;-73
2024/04/12 07:25:07;;;;;;;21.02;11.30;;;;;;;;;;5464998;26;19998;-72
2024/04/12 07:27:35;;;;;;;17.17;11.52;;;;;;;;;;5469135;26;20450;-74
2024/04/12 07:30:05;;;;;;;18.35;11.27;;;;;;;;;;5436309;26;20002;-74
2024/04/12 07:32:35;;;;;;;19.48;12.32;;;;;;;;;;5474039;26;20013;-74
2024/04/12 07:35:24;;;;;;;19.05;11.18;;;;;;;;;;5458050;26;20057;-74
2024/04/12 07:37:54;;;;;;;18.02;11.18;;;;;;;;;;5461834;26;19998;-74
2024/04/12 07:40:39;;;;;;;17.38;10.35;;;;;;;;;;5435632;26;20080;-74
2024/04/12 07:43:10;;;;;;;17.88;12.02;;;;;;;;;;5411457;26;20075;-74
2024/04/12 07:45:40;;;;;;;20.98;12.10;;;;;;;;;;5439105;26;20013;-74
2024/04/12 07:50:47;;;;;;;20.85;10.73;;;;;;;;;;5448344;26;20018;-74
2024/04/12 07:55:55;;;;;;;16.80;10.70;;;;;;;;;;5466511;26;20010;-74
2024/04/12 07:58:26;;;;;;;16.52;10.73;;;;;;;;;;5435923;26;20006;-75
2024/04/12 08:01:38;;;;;;;20.67;11.50;;;;;;;;;;5425493;26;20087;-74
2024/04/12 08:04:05;;;;;;;19.98;10.70;;;;;;;;;;5432416;26;20014;-74
2024/04/12 08:09:21;;;;;;;18.15;11.20;;;;;;;;;;5462593;26;20360;-75
2024/04/12 08:11:51;;;;;;;18.85;10.88;;;;;;;;;;5467068;26;19998;-74
2024/04/12 08:14:22;;;;;;;16.15;9.93;;;;;;;;;;5463944;26;20010;-74
2024/04/12 08:16:52;;;;;;;18.50;10.95;;;;;;;;;;5415874;26;20079;-73
2024/04/12 08:19:22;;;;;;;17.42;10.38;;;;;;;;;;5470591;26;20477;-73
2024/04/12 08:21:49;;;;;;;21.25;11.13;;;;;;;;;;5432468;26;20397;-73
2024/04/12 08:24:22;;;;;;;18.13;9.93;;;;;;;;;;5469916;26;20021;-74
2024/04/12 08:26:51;;;;;;;19.48;11.02;;;;;;;;;;5468200;26;20042;-75
2024/04/12 08:29:29;;;;;;;16.98;9.23;;;;;;;;;;5410997;26;19999;-74
2024/04/12 08:34:44;;;;;;;14.32;10.23;;;;;;;;;;5462356;26;20005;-74
2024/04/12 08:37:16;;;;;;;15.45;10.20;;;;;;;;;;5460708;26;20002;-75
2024/04/12 08:39:43;;;;;;;19.15;10.63;;;;;;;;;;5444476;26;20013;-74
2024/04/12 08:42:11;;;;;;;15.80;9.60;;;;;;;;;;5450967;26;20003;-74
2024/04/12 08:44:37;;;;;;;15.07;9.85;;;;;;;;;;5465223;26;20034;-74
2024/04/12 08:49:51;;;;;;;18.67;11.48;;;;;;;;;;5447725;26;20010;-75
2024/04/12 08:52:28;;;;;;;18.55;11.68;;;;;;;;;;5365830;26;20032;-75
2024/04/12 08:54:59;;;;;;;17.13;10.20;;;;;;;;;;5392619;26;20041;-75
2024/04/12 08:57:26;;;;;;;16.50;10.48;;;;;;;;;;5420902;26;20986;-74
2024/04/12 08:59:58;;;;;;;19.45;10.48;;;;;;;;;;5414788;26;20017;-75
2024/04/12 09:02:34;;;;;;;18.70;9.65;;;;;;;;;;5414403;26;20315;-75
2024/04/12 09:05:08;;;;;;;20.20;10.30;;;;;;;;;;5406673;26;20076;-74
2024/04/12 09:07:42;;;;;;;17.58;10.25;;;;;;;;;;5400183;26;20008;-75
2024/04/12 09:10:15;;;;;;;18.48;10.48;;;;;;;;;;5416591;26;20007;-76
2024/04/12 09:12:44;;;;;;;18.20;10.23;;;;;;;;;;5407309;26;19995;-75
2024/04/12 09:15:23;;;;;;;17.27;10.05;;;;;;;;;;5417430;26;20004;-75
2024/04/12 09:17:59;;;;;;;15.25;9.38;;;;;;;;;;5405138;26;19999;-76
2024/04/12 09:20:34;;;;;;;16.52;9.68;;;;;;;;;;5427318;26;20484;-74
2024/04/12 09:23:14;;;;;;;14.05;8.55;;;;;;;;;;5385853;26;20337;-74
2024/04/12 09:25:41;;;;;;;17.70;8.40;;;;;;;;;;5409122;26;20100;-74
2024/04/12 09:28:12;;;;;;;15.38;8.82;;;;;;;;;;5419171;26;20003;-74
2024/04/12 09:33:31;;;;;;;17.70;8.98;;;;;;;;;;5405489;26;20708;-74
2024/04/12 09:36:05;;;;;;;16.52;8.25;;;;;;;;;;5417021;26;20000;-75
2024/04/12 09:38:39;;;;;;;15.93;7.90;;;;;;;;;;5429937;26;20007;-75
2024/04/12 09:41:27;;;;;;;17.45;8.52;;;;;;;;;;5411008;26;20011;-75
2024/04/12 09:43:54;;;;;;;16.65;8.57;;;;;;;;;;5420982;26;20007;-75
2024/04/12 09:46:36;;;;;;;16.88;8.80;;;;;;;;;;5402231;26;19999;-75
2024/04/12 10:39:33;;;;;;;13.95;8.60;;;;;;;;;;5424701;26;20010;-74
2024/04/12 10:42:01;;;;;;;16.88;8.38;;;;;;;;;;5430854;26;20007;-72
2024/04/12 10:44:27;;;;;;;13.35;7.00;;;;;;;;;;5424773;26;19999;-72
2024/04/12 10:46:54;;;;;;;13.77;7.40;;;;;;;;;;5417813;26;20012;-74
2024/04/12 10:49:21;;;;;;;13.02;7.38;;;;;;;;;;5453344;26;20483;-72
2024/04/12 10:51:48;;;;;;;14.77;8.60;;;;;;;;;;5436698;26;19998;-72
2024/04/12 10:54:14;;;;;;;14.13;8.13;;;;;;;;;;5424458;26;20010;-72
2024/04/12 10:56:53;;;;;;;13.23;7.93;;;;;;;;;;5440037;26;20115;-72
2024/04/12 10:59:28;;;;;;;15.98;7.28;;;;;;;;;;5441936;26;20498;-72
2024/04/12 11:01:55;;;;;;;12.25;6.72;;;;;;;;;;5463752;26;20011;-73
2024/04/12 11:04:22;;;;;;;13.68;6.85;;;;;;;;;;5435301;26;20013;-72
2024/04/12 11:06:54;;;;;;;15.40;7.25;;;;;;;;;;5462493;26;20009;-73
2024/04/12 11:09:38;;;;;;;11.07;6.18;;;;;;;;;;5442334;26;20003;-73
2024/04/12 11:12:10;;;;;;;11.35;6.75;;;;;;;;;;5428539;26;19999;-73
2024/04/12 11:14:38;;;;;;;16.38;6.55;;;;;;;;;;5463398;26;20014;-73
2024/04/12 11:31:07;;;;;;;14.02;6.30;;;;;;;;;;5495841;26;20007;-73
2024/04/12 11:33:39;;;;;;;9.43;5.35;;;;;;;;;;5429306;26;19999;-73
2024/04/12 11:36:19;;;;;;;11.88;6.10;;;;;;;;;;5456929;26;20006;-72
2024/04/12 11:38:48;;;;;;;10.63;5.82;;;;;;;;;;5443812;26;19995;-73
2024/04/12 11:41:15;;;;;;;11.43;5.72;;;;;;;;;;5432494;26;20010;-72
2024/04/12 11:43:45;;;;;;;13.25;5.25;;;;;;;;;;5447274;26;20920;-73
2024/04/12 11:46:16;;;;;;;10.55;5.25;;;;;;;;;;5404006;26;20094;-72
2024/04/12 11:48:43;;;;;;;16.92;5.57;;;;;;;;;;5452134;26;20565;-72
2024/04/12 11:51:10;;;;;;;12.07;5.35;;;;;;;;;;5463984;26;20001;-73
2024/04/12 11:53:37;;;;;;;7.32;4.60;;;;;;;;;;5477721;26;20079;-72
2024/04/12 11:56:04;;;;;;;9.65;5.10;;;;;;;;;;5473317;26;20006;-73
2024/04/12 11:58:31;;;;;;;11.27;5.30;;;;;;;;;;5441033;26;20014;-73
2024/04/12 12:00:59;;;;;;;8.48;4.70;;;;;;;;;;5430091;26;20010;-73
2024/04/12 12:03:25;;;;;;;10.65;4.70;;;;;;;;;;5424000;26;20002;-72
2024/04/12 12:05:53;;;;;;;8.90;4.57;;;;;;;;;;5460158;26;20021;-73
2024/04/12 12:08:32;;;;;;;8.77;5.32;;;;;;;;;;5427371;26;20459;-72
2024/04/12 12:10:59;;;;;;;13.65;4.88;;;;;;;;;;5466790;26;20032;-72
2024/04/12 12:13:25;;;;;;;15.50;4.75;;;;;;;;;;5454776;26;19999;-74
2024/04/12 12:15:52;;;;;;;9.13;4.47;;;;;;;;;;5461384;26;20082;-73
2024/04/12 12:18:18;;;;;;;12.95;4.47;;;;;;;;;;5420020;26;19995;-74
2024/04/12 12:20:46;;;;;;;8.75;4.38;;;;;;;;;;5445469;26;20007;-74
2024/04/12 12:23:13;;;;;;;10.30;5.17;;;;;;;;;;5460591;26;20006;-74
2024/04/12 12:25:41;;;;;;;9.10;4.88;;;;;;;;;;5432724;26;20006;-74
2024/04/12 12:28:08;;;;;;;11.65;5.25;;;;;;;;;;5455751;26;20014;-74
2024/04/12 12:30:34;;;;;;;8.23;4.82;;;;;;;;;;5411967;26;20003;-73
2024/04/12 12:33:07;;;;;;;11.77;5.07;;;;;;;;;;5449837;26;20079;-74
2024/04/12 12:35:35;;;;;;;11.07;4.97;;;;;;;;;;5412333;26;19995;-73
2024/04/12 12:38:01;;;;;;;;;;;;;;;;;;5477436;26;20003;-74
2024/04/12 12:40:31;;;;;;;7.90;5.30;;;;;;;;;;5434565;26;19924;-73
2024/04/12 12:42:57;;;;;;;7.50;4.85;;;;;;;;;;5451871;26;20327;-74
2024/04/12 12:45:24;;;;;;;10.20;4.65;;;;;;;;;;5442082;26;20010;-74
2024/04/12 12:47:53;;;;;;;9.90;4.70;;;;;;;;;;5460717;26;20021;-74
2024/04/12 12:50:20;;;;;;;10.63;4.85;;;;;;;;;;5441363;26;20071;-74
2024/04/12 12:52:49;;;;;;;7.80;4.38;;;;;;;;;;5457295;26;20032;-74
2024/04/12 12:55:19;;;;;;;8.27;4.18;;;;;;;;;;5459024;26;20021;-74
2024/04/12 12:57:45;;;;;;;7.53;4.07;;;;;;;;;;5427136;26;20002;-74
2024/04/12 13:00:18;;;;;;;9.95;4.05;;;;;;;;;;5452506;26;20013;-74
2024/04/12 13:02:50;;;;;;;7.38;3.72;;;;;;;;;;5415647;26;20502;-73
2024/04/12 13:05:20;;;;;;;8.95;4.40;;;;;;;;;;5443249;26;19998;-74
2024/04/12 13:07:49;;;;;;;8.18;4.88;;;;;;;;;;5439655;26;20009;-74
2024/04/12 13:10:19;;;;;;;9.85;5.22;;;;;;;;;;5409649;26;20002;-75
2024/04/12 13:12:51;;;;;;;13.30;5.05;;;;;;;;;;5473503;26;20017;-74
2024/04/12 13:15:19;;;;;;;8.15;5.30;;;;;;;;;;5432659;26;20061;-74
2024/04/12 13:17:46;;;;;;;9.40;4.75;;;;;;;;;;5461084;26;20010;-75
2024/04/12 13:20:19;;;;;;;8.50;5.13;;;;;;;;;;5416391;26;20459;-74
2024/04/12 13:22:47;;;;;;;9.63;4.88;;;;;;;;;;5453071;26;20083;-74
2024/04/12 13:25:17;;;;;;;8.48;4.40;;;;;;;;;;5427606;26;19994;-74
2024/04/12 13:27:51;;;;;;;8.32;4.85;;;;;;;;;;5461360;26;20088;-74
2024/04/12 13:30:24;;;;;;;8.43;4.78;;;;;;;;;;5448059;26;20022;-75
2024/04/12 13:32:58;;;;;;;12.00;5.80;;;;;;;;;;5429052;26;20482;-74
2024/04/12 13:35:25;;;;;;;13.00;5.30;;;;;;;;;;5469027;26;20545;-75
2024/04/12 13:37:52;;;;;;;7.35;3.95;;;;;;;;;;5448663;26;20015;-75
2024/04/12 13:40:19;;;;;;;5.22;3.63;;;;;;;;;;5440531;26;20478;-75
2024/04/12 13:42:48;;;;;;;9.32;4.03;;;;;;;;;;5419082;26;20003;-74
2024/04/12 13:50:55;;;;;;;7.93;4.28;;;;;;;;;;5442232;26;19999;-74
2024/04/12 13:53:37;;;;;;;11.35;5.43;;;;;;;;;;5455396;26;19994;-74
2024/04/12 13:58:52;;;;;;;11.07;4.57;;;;;;;;;;5456255;26;19998;-75
2024/04/12 14:01:31;;;;;;;10.43;5.55;;;;;;;;;;5449081;26;19999;-75
2024/04/12 14:03:58;;;;;;;11.13;4.75;;;;;;;;;;5447010;26;20070;-75
2024/04/12 14:06:25;;;;;;;8.30;4.80;;;;;;;;;;5438291;26;20080;-74
2024/04/12 14:08:53;;;;;;;10.30;5.47;;;;;;;;;;5448711;26;20453;-74
2024/04/12 14:11:19;;;;;;;14.07;5.80;;;;;;;;;;5451910;26;20008;-74
2024/04/12 14:13:46;;;;;;;12.07;5.45;;;;;;;;;;5451566;26;20002;-76
2024/04/12 14:16:13;;;;;;;10.57;6.50;;;;;;;;;;5444645;26;20003;-76
2024/04/12 14:18:39;;;;;;;9.98;6.43;;;;;;;;;;5478998;26;20557;-75
2024/04/12 14:21:07;;;;;;;8.82;5.20;;;;;;;;;;5445349;26;20003;-74
2024/04/12 14:23:33;;;;;;;10.68;5.50;;;;;;;;;;5423970;26;20003;-74
2024/04/12 14:26:00;;;;;;;9.25;4.80;;;;;;;;;;5430562;26;19999;-74
2024/04/12 14:28:28;;;;;;;9.82;5.57;;;;;;;;;;5442650;26;20088;-74
2024/04/12 14:30:55;;;;;;;9.75;4.68;;;;;;;;;;5462531;26;19995;-74
2024/04/12 14:33:22;;;;;;;12.10;4.80;;;;;;;;;;5436881;26;20422;-75
2024/04/12 14:35:51;;;;;;;7.47;5.03;;;;;;;;;;5443233;26;19994;-75
2024/04/12 14:38:19;;;;;;;11.52;5.43;;;;;;;;;;5450915;26;20347;-74
2024/04/12 14:40:51;;;;;;;11.63;4.72;;;;;;;;;;5455768;26;20142;-74
2024/04/12 14:43:18;;;;;;;8.75;4.85;;;;;;;;;;5455087;26;20022;-75
2024/04/12 14:45:45;;;;;;;12.68;5.53;;;;;;;;;;5473160;26;19998;-75
2024/04/12 14:48:14;;;;;;;8.50;4.50;;;;;;;;;;5467081;26;20657;-75
2024/04/12 14:50:42;;;;;;;6.78;4.60;;;;;;;;;;5425922;26;20328;-76
2024/04/12 14:53:08;;;;;;;8.43;4.57;;;;;;;;;;5458575;26;20017;-74
2024/04/12 14:55:36;;;;;;;7.90;4.57;;;;;;;;;;5447228;26;19998;-75
2024/04/12 14:58:03;;;;;;;8.02;4.10;;;;;;;;;;5471348;26;20010;-75
2024/04/12 15:00:29;;;;;;;7.72;4.00;;;;;;;;;;5462719;26;20011;-75
2024/04/12 15:49:45;;;;;;;5.22;1.92;;;;;;;;;;5437034;26;19995;-75
2024/04/12 15:52:13;;;;;;;3.20;1.60;;;;;;;;;;5469101;26;20038;-74
2024/04/12 15:54:50;;;;;;;4.82;1.70;;;;;;;;;;5450135;26;20080;-75
2024/04/12 16:11:09;;;;;;;5.07;1.83;;;;;;;;;;5465097;26;20014;-75
2024/04/12 16:13:35;;;;;;;5.05;1.88;;;;;;;;;;5449012;26;20389;-74
2024/04/12 16:16:02;;;;;;;5.47;1.65;;;;;;;;;;5451170;26;20331;-73
2024/04/12 16:18:29;;;;;;;4.50;2.10;;;;;;;;;;5421689;26;20010;-74
2024/04/12 16:20:56;;;;;;;2.65;1.90;;;;;;;;;;5445418;26;20021;-74
2024/04/12 16:23:22;;;;;;;5.78;2.30;;;;;;;;;;5460941;26;20002;-74
2024/04/12 16:25:49;;;;;;;4.97;2.03;;;;;;;;;;5427787;26;20014;-73
2024/04/12 16:28:28;;;;;;;2.40;1.55;;;;;;;;;;5467005;26;20010;-74
2024/04/12 16:30:55;;;;;;;4.80;1.92;;;;;;;;;;5449438;26;20073;-74
2024/04/12 16:33:25;;;;;;;5.13;1.98;;;;;;;;;;5462241;26;20503;-74
2024/04/12 16:35:52;;;;;;;4.38;1.65;;;;;;;;;;5442464;26;20481;-75
2024/04/12 16:38:18;;;;;;;3.13;1.80;;;;;;;;;;5453616;26;20075;-74
2024/04/12 16:40:46;;;;;;;5.90;2.50;;;;;;;;;;5459519;26;20074;-74
2024/04/12 16:43:12;;;;;;;4.22;2.10;;;;;;;;;;5448861;26;20012;-74
2024/04/12 16:45:39;;;;;;;4.50;2.10;;;;;;;;;;5438962;26;20003;-74
2024/04/12 16:48:06;;;;;;;4.80;2.42;;;;;;;;;;5466832;26;20522;-74
2024/04/12 16:50:33;;;;;;;4.40;1.77;;;;;;;;;;5461016;26;20014;-74
2024/04/12 16:52:59;;;;;;;4.22;1.80;;;;;;;;;;5452486;26;19998;-74
2024/04/12 16:55:26;;;;;;;3.88;2.10;;;;;;;;;;5455831;26;19998;-74
2024/04/12 16:57:52;;;;;;;3.80;2.03;;;;;;;;;;5473068;26;19998;-74
2024/04/12 17:00:19;;;;;;;4.45;2.08;;;;;;;;;;5457416;26;20533;-74
2024/04/12 17:02:46;;;;;;;6.18;2.42;;;;;;;;;;5446041;26;20002;-74
2024/04/12 17:05:14;;;;;;;6.22;1.90;;;;;;;;;;5439887;26;20002;-74
2024/04/12 17:07:40;;;;;;;;;;;;;;;;;;5409321;26;20494;-75
2024/04/12 17:10:08;;;;;;;6.68;1.85;;;;;;;;;;5460015;26;20010;-73
2024/04/12 17:12:35;;;;;;;5.82;2.28;;;;;;;;;;5439772;26;20070;-74